Pagina principale
METAR-TAF:

METAR-TAF

Aeroporti :

Middleton Island, Alaska, Stati Uniti

latitudine: 59-26N, longitudine: 146-18W, altezza: 27 m

Osservazione

Il bollettino è stato emesso 51 minuti fa, alle 14:51 UTC
Vento 23 kt da est/sud-est con raffiche fino a 28 kt
Temperature 6°C
Umidità 93%
Pressione 1013 hPa
Visibilità: 9.7 km
Cielo coperto ad un'altezza di 800 ft
pioggia debole, foschia

METAR: PAMD 221451Z AUTO 12023G28KT 6SM -RA BR OVC008 06/05 A2992 RMK AO2 PK WND 12028/1444 SLP119 P0000 60001 T00560050 58008

Ora: 07:42 (15:42 UTC)


TAF: mancante

Osservazioni e previsioni meteorologiche di più di 4000 aeroporti (messaggi METAR e TAF).

Le stazioni disponibili sono rappresentate dai dischi gialli e rossi sulla carta.

Puntare il mouse per vedere il nome della stazione.

Clicca sopra per visualizzare le osservazioni e previsioni meteorologiche.

Per cambiare la mappa : fare clic sui pulsanti verdi con una croce nera per ingrandire, il pulsante verde con un trattino per diminuire, o sulla freccia verde per le mappe adiacenti.


METAR-TAF: